sensor_id;sensor_type;location;lat;lon;timestamp;P1;durP1;ratioP1;P2;durP2;ratioP2
21802;SDS011;18591;47.080;22.214;2022-09-30T00:00:21;2.17;;;1.83;;
21802;SDS011;18591;47.080;22.214;2022-09-30T00:02:23;3.22;;;1.83;;
21802;SDS011;18591;47.080;22.214;2022-09-30T00:04:26;2.40;;;2.20;;
21802;SDS011;18591;47.080;22.214;2022-09-30T00:06:29;5.13;;;1.67;;
21802;SDS011;18591;47.080;22.214;2022-09-30T00:08:32;4.18;;;1.80;;
21802;SDS011;18591;47.080;22.214;2022-09-30T00:10:34;6.00;;;1.05;;
21802;SDS011;18591;47.080;22.214;2022-09-30T00:12:36;1.42;;;1.20;;
21802;SDS011;18591;47.080;22.214;2022-09-30T00:14:39;2.30;;;1.27;;
21802;SDS011;18591;47.080;22.214;2022-09-30T00:16:41;5.20;;;1.35;;
21802;SDS011;18591;47.080;22.214;2022-09-30T00:18:44;3.67;;;1.30;;
21802;SDS011;18591;47.080;22.214;2022-09-30T00:20:46;1.70;;;0.80;;
21802;SDS011;18591;47.080;22.214;2022-09-30T00:22:49;5.22;;;0.88;;
21802;SDS011;18591;47.080;22.214;2022-09-30T00:28:46;2.10;;;1.08;;
21802;SDS011;18591;47.080;22.214;2022-09-30T00:30:51;5.18;;;1.55;;
21802;SDS011;18591;47.080;22.214;2022-09-30T00:32:53;3.28;;;1.40;;
21802;SDS011;18591;47.080;22.214;2022-09-30T00:34:55;2.85;;;1.60;;
21802;SDS011;18591;47.080;22.214;2022-09-30T00:36:58;3.30;;;1.70;;
21802;SDS011;18591;47.080;22.214;2022-09-30T00:42:40;5.88;;;2.17;;
21802;SDS011;18591;47.080;22.214;2022-09-30T00:46:53;6.65;;;2.10;;
21802;SDS011;18591;47.080;22.214;2022-09-30T00:49:02;5.50;;;2.03;;
21802;SDS011;18591;47.080;22.214;2022-09-30T00:51:12;8.27;;;2.25;;
21802;SDS011;18591;47.080;22.214;2022-09-30T00:53:22;2.90;;;1.48;;
21802;SDS011;18591;47.080;22.214;2022-09-30T00:58:00;0.90;;;0.90;;
21802;SDS011;18591;47.080;22.214;2022-09-30T01:00:06;2.17;;;1.10;;
21802;SDS011;18591;47.080;22.214;2022-09-30T01:02:09;2.45;;;1.25;;
21802;SDS011;18591;47.080;22.214;2022-09-30T01:04:14;2.33;;;1.42;;
21802;SDS011;18591;47.080;22.214;2022-09-30T01:06:20;1.83;;;1.38;;
21802;SDS011;18591;47.080;22.214;2022-09-30T01:08:23;2.90;;;1.00;;
21802;SDS011;18591;47.080;22.214;2022-09-30T01:10:27;1.63;;;1.00;;
21802;SDS011;18591;47.080;22.214;2022-09-30T01:12:30;1.92;;;1.10;;
21802;SDS011;18591;47.080;22.214;2022-09-30T01:15:08;5.63;;;1.25;;
21802;SDS011;18591;47.080;22.214;2022-09-30T01:17:15;0.93;;;0.82;;
21802;SDS011;18591;47.080;22.214;2022-09-30T01:37:30;2.42;;;0.80;;
21802;SDS011;18591;47.080;22.214;2022-09-30T01:46:53;2.55;;;1.15;;
21802;SDS011;18591;47.080;22.214;2022-09-30T01:51:17;1.58;;;1.20;;
21802;SDS011;18591;47.080;22.214;2022-09-30T01:53:48;1.05;;;0.95;;
21802;SDS011;18591;47.080;22.214;2022-09-30T02:00:52;2.25;;;1.00;;
21802;SDS011;18591;47.080;22.214;2022-09-30T02:03:16;4.10;;;1.00;;
21802;SDS011;18591;47.080;22.214;2022-09-30T02:07:32;2.75;;;1.30;;
21802;SDS011;18591;47.080;22.214;2022-09-30T02:10:04;1.80;;;1.30;;
21802;SDS011;18591;47.080;22.214;2022-09-30T02:12:20;1.85;;;1.52;;
21802;SDS011;18591;47.080;22.214;2022-09-30T02:16:41;4.15;;;1.05;;
21802;SDS011;18591;47.080;22.214;2022-09-30T02:18:49;3.35;;;1.83;;
21802;SDS011;18591;47.080;22.214;2022-09-30T02:20:57;2.65;;;1.60;;
21802;SDS011;18591;47.080;22.214;2022-09-30T02:23:12;1.45;;;1.35;;
21802;SDS011;18591;47.080;22.214;2022-09-30T02:25:28;5.13;;;1.85;;
21802;SDS011;18591;47.080;22.214;2022-09-30T02:27:40;2.35;;;1.38;;
21802;SDS011;18591;47.080;22.214;2022-09-30T02:29:50;3.38;;;1.08;;
21802;SDS011;18591;47.080;22.214;2022-09-30T02:31:57;5.10;;;1.20;;
21802;SDS011;18591;47.080;22.214;2022-09-30T02:34:51;4.57;;;1.00;;
21802;SDS011;18591;47.080;22.214;2022-09-30T02:36:43;1.50;;;0.95;;
21802;SDS011;18591;47.080;22.214;2022-09-30T02:38:58;1.77;;;1.00;;
21802;SDS011;18591;47.080;22.214;2022-09-30T02:41:09;3.63;;;0.98;;
21802;SDS011;18591;47.080;22.214;2022-09-30T02:43:16;1.77;;;1.05;;
21802;SDS011;18591;47.080;22.214;2022-09-30T02:45:21;4.93;;;1.50;;
21802;SDS011;18591;47.080;22.214;2022-09-30T02:47:27;2.83;;;1.00;;
21802;SDS011;18591;47.080;22.214;2022-09-30T02:49:35;1.92;;;0.88;;
21802;SDS011;18591;47.080;22.214;2022-09-30T02:54:22;2.70;;;1.10;;
21802;SDS011;18591;47.080;22.214;2022-09-30T02:56:52;1.38;;;0.80;;
21802;SDS011;18591;47.080;22.214;2022-09-30T02:58:59;3.45;;;1.10;;
21802;SDS011;18591;47.080;22.214;2022-09-30T03:01:01;2.47;;;1.13;;
21802;SDS011;18591;47.080;22.214;2022-09-30T03:03:05;1.48;;;0.95;;
21802;SDS011;18591;47.080;22.214;2022-09-30T03:05:10;2.45;;;1.30;;
21802;SDS011;18591;47.080;22.214;2022-09-30T03:07:12;1.88;;;0.80;;
21802;SDS011;18591;47.080;22.214;2022-09-30T03:09:15;0.70;;;0.60;;
21802;SDS011;18591;47.080;22.214;2022-09-30T03:11:21;3.75;;;1.02;;
21802;SDS011;18591;47.080;22.214;2022-09-30T03:18:36;4.72;;;1.20;;
21802;SDS011;18591;47.080;22.214;2022-09-30T03:21:03;1.13;;;0.82;;
21802;SDS011;18591;47.080;22.214;2022-09-30T03:30:25;0.85;;;0.85;;
21802;SDS011;18591;47.080;22.214;2022-09-30T03:42:14;1.35;;;0.75;;
21802;SDS011;18591;47.080;22.214;2022-09-30T03:44:32;1.42;;;0.75;;
21802;SDS011;18591;47.080;22.214;2022-09-30T03:46:55;3.75;;;1.05;;
21802;SDS011;18591;47.080;22.214;2022-09-30T03:49:03;2.92;;;1.00;;
21802;SDS011;18591;47.080;22.214;2022-09-30T03:51:08;2.70;;;1.20;;
21802;SDS011;18591;47.080;22.214;2022-09-30T03:53:10;1.73;;;1.30;;
21802;SDS011;18591;47.080;22.214;2022-09-30T03:55:13;5.82;;;1.13;;
21802;SDS011;18591;47.080;22.214;2022-09-30T03:57:17;3.25;;;1.30;;
21802;SDS011;18591;47.080;22.214;2022-09-30T03:59:23;1.98;;;1.38;;
21802;SDS011;18591;47.080;22.214;2022-09-30T04:01:26;2.22;;;1.40;;
21802;SDS011;18591;47.080;22.214;2022-09-30T04:03:30;1.50;;;1.20;;
21802;SDS011;18591;47.080;22.214;2022-09-30T04:05:32;4.10;;;1.70;;
21802;SDS011;18591;47.080;22.214;2022-09-30T04:07:34;2.28;;;1.38;;
21802;SDS011;18591;47.080;22.214;2022-09-30T04:09:37;6.50;;;1.73;;
21802;SDS011;18591;47.080;22.214;2022-09-30T04:11:42;1.95;;;1.08;;
21802;SDS011;18591;47.080;22.214;2022-09-30T04:13:45;1.70;;;1.55;;
21802;SDS011;18591;47.080;22.214;2022-09-30T04:15:52;3.33;;;1.80;;
21802;SDS011;18591;47.080;22.214;2022-09-30T04:17:54;3.33;;;2.03;;
21802;SDS011;18591;47.080;22.214;2022-09-30T04:19:56;4.60;;;2.05;;
21802;SDS011;18591;47.080;22.214;2022-09-30T04:21:58;5.32;;;2.10;;
21802;SDS011;18591;47.080;22.214;2022-09-30T04:24:01;7.32;;;3.97;;
21802;SDS011;18591;47.080;22.214;2022-09-30T04:26:03;15.75;;;8.30;;
21802;SDS011;18591;47.080;22.214;2022-09-30T04:28:10;10.80;;;6.30;;
21802;SDS011;18591;47.080;22.214;2022-09-30T04:30:12;9.95;;;4.95;;
21802;SDS011;18591;47.080;22.214;2022-09-30T04:32:14;6.50;;;3.22;;
21802;SDS011;18591;47.080;22.214;2022-09-30T04:34:16;2.47;;;2.08;;
21802;SDS011;18591;47.080;22.214;2022-09-30T04:36:18;4.90;;;2.58;;
21802;SDS011;18591;47.080;22.214;2022-09-30T04:38:20;4.15;;;2.60;;
21802;SDS011;18591;47.080;22.214;2022-09-30T04:40:24;3.80;;;3.28;;
21802;SDS011;18591;47.080;22.214;2022-09-30T04:42:27;5.78;;;2.50;;
21802;SDS011;18591;47.080;22.214;2022-09-30T04:44:29;2.85;;;2.50;;
21802;SDS011;18591;47.080;22.214;2022-09-30T04:46:34;8.88;;;3.25;;
21802;SDS011;18591;47.080;22.214;2022-09-30T04:48:37;5.65;;;3.65;;
21802;SDS011;18591;47.080;22.214;2022-09-30T04:50:40;5.13;;;3.10;;
21802;SDS011;18591;47.080;22.214;2022-09-30T04:52:42;9.77;;;3.40;;
21802;SDS011;18591;47.080;22.214;2022-09-30T04:54:44;4.38;;;2.45;;
21802;SDS011;18591;47.080;22.214;2022-09-30T04:56:46;2.53;;;2.10;;
21802;SDS011;18591;47.080;22.214;2022-09-30T04:58:49;6.82;;;2.80;;
21802;SDS011;18591;47.080;22.214;2022-09-30T05:00:58;5.05;;;2.28;;
21802;SDS011;18591;47.080;22.214;2022-09-30T05:03:01;3.65;;;2.38;;
21802;SDS011;18591;47.080;22.214;2022-09-30T05:05:03;4.78;;;2.78;;
21802;SDS011;18591;47.080;22.214;2022-09-30T05:07:06;3.42;;;2.25;;
21802;SDS011;18591;47.080;22.214;2022-09-30T05:09:09;4.85;;;2.35;;
21802;SDS011;18591;47.080;22.214;2022-09-30T05:11:15;4.88;;;2.70;;
21802;SDS011;18591;47.080;22.214;2022-09-30T05:13:19;7.93;;;2.80;;
21802;SDS011;18591;47.080;22.214;2022-09-30T05:15:21;4.75;;;2.70;;
21802;SDS011;18591;47.080;22.214;2022-09-30T05:17:23;7.22;;;3.53;;
21802;SDS011;18591;47.080;22.214;2022-09-30T05:19:25;5.78;;;3.00;;
21802;SDS011;18591;47.080;22.214;2022-09-30T05:21:28;9.98;;;5.65;;
21802;SDS011;18591;47.080;22.214;2022-09-30T05:23:31;12.15;;;5.45;;
21802;SDS011;18591;47.080;22.214;2022-09-30T05:25:33;26.90;;;13.25;;
21802;SDS011;18591;47.080;22.214;2022-09-30T05:27:36;29.92;;;14.45;;
21802;SDS011;18591;47.080;22.214;2022-09-30T05:29:39;31.10;;;14.00;;
21802;SDS011;18591;47.080;22.214;2022-09-30T05:31:42;32.55;;;12.77;;
21802;SDS011;18591;47.080;22.214;2022-09-30T05:33:45;42.05;;;18.17;;
21802;SDS011;18591;47.080;22.214;2022-09-30T05:35:47;39.33;;;20.75;;
21802;SDS011;18591;47.080;22.214;2022-09-30T05:37:49;22.70;;;13.10;;
21802;SDS011;18591;47.080;22.214;2022-09-30T05:39:51;15.93;;;10.27;;
21802;SDS011;18591;47.080;22.214;2022-09-30T05:41:54;15.52;;;8.75;;
21802;SDS011;18591;47.080;22.214;2022-09-30T05:43:58;15.05;;;7.40;;
21802;SDS011;18591;47.080;22.214;2022-09-30T05:46:01;15.43;;;7.20;;
21802;SDS011;18591;47.080;22.214;2022-09-30T05:48:03;13.93;;;6.60;;
21802;SDS011;18591;47.080;22.214;2022-09-30T05:50:05;9.55;;;5.97;;
21802;SDS011;18591;47.080;22.214;2022-09-30T05:52:07;10.25;;;5.28;;
21802;SDS011;18591;47.080;22.214;2022-09-30T05:54:09;9.77;;;4.68;;
21802;SDS011;18591;47.080;22.214;2022-09-30T05:56:12;10.57;;;4.50;;
21802;SDS011;18591;47.080;22.214;2022-09-30T05:58:14;5.13;;;3.80;;
21802;SDS011;18591;47.080;22.214;2022-09-30T06:00:17;7.85;;;3.78;;
21802;SDS011;18591;47.080;22.214;2022-09-30T06:02:20;9.63;;;4.25;;
21802;SDS011;18591;47.080;22.214;2022-09-30T06:04:22;7.18;;;4.20;;
21802;SDS011;18591;47.080;22.214;2022-09-30T06:06:24;9.32;;;4.68;;
21802;SDS011;18591;47.080;22.214;2022-09-30T06:08:26;11.27;;;6.05;;
21802;SDS011;18591;47.080;22.214;2022-09-30T06:10:29;12.13;;;6.72;;
21802;SDS011;18591;47.080;22.214;2022-09-30T06:12:31;16.73;;;8.20;;
21802;SDS011;18591;47.080;22.214;2022-09-30T06:14:33;15.45;;;8.20;;
21802;SDS011;18591;47.080;22.214;2022-09-30T06:16:39;14.57;;;8.25;;
21802;SDS011;18591;47.080;22.214;2022-09-30T06:18:42;13.73;;;8.43;;
21802;SDS011;18591;47.080;22.214;2022-09-30T06:20:44;13.90;;;9.05;;
21802;SDS011;18591;47.080;22.214;2022-09-30T06:22:46;16.67;;;10.20;;
21802;SDS011;18591;47.080;22.214;2022-09-30T06:24:48;19.45;;;9.80;;
21802;SDS011;18591;47.080;22.214;2022-09-30T06:26:55;16.13;;;10.15;;
21802;SDS011;18591;47.080;22.214;2022-09-30T06:28:57;16.92;;;9.27;;
21802;SDS011;18591;47.080;22.214;2022-09-30T06:30:59;12.32;;;9.00;;
21802;SDS011;18591;47.080;22.214;2022-09-30T06:33:02;11.95;;;7.75;;
21802;SDS011;18591;47.080;22.214;2022-09-30T06:35:05;9.82;;;7.72;;
21802;SDS011;18591;47.080;22.214;2022-09-30T06:37:07;13.30;;;9.55;;
21802;SDS011;18591;47.080;22.214;2022-09-30T06:41:36;10.52;;;6.55;;
21802;SDS011;18591;47.080;22.214;2022-09-30T06:43:40;5.40;;;3.22;;
21802;SDS011;18591;47.080;22.214;2022-09-30T06:45:58;3.55;;;2.97;;
21802;SDS011;18591;47.080;22.214;2022-09-30T06:48:16;5.70;;;3.65;;
21802;SDS011;18591;47.080;22.214;2022-09-30T06:50:31;7.53;;;5.00;;
21802;SDS011;18591;47.080;22.214;2022-09-30T06:52:33;15.77;;;7.57;;
21802;SDS011;18591;47.080;22.214;2022-09-30T06:54:35;20.27;;;11.55;;
21802;SDS011;18591;47.080;22.214;2022-09-30T06:56:37;24.55;;;14.30;;
21802;SDS011;18591;47.080;22.214;2022-09-30T06:58:39;24.13;;;14.38;;
21802;SDS011;18591;47.080;22.214;2022-09-30T07:00:42;23.33;;;12.55;;
21802;SDS011;18591;47.080;22.214;2022-09-30T07:05:58;14.73;;;9.45;;
21802;SDS011;18591;47.080;22.214;2022-09-30T07:08:02;12.18;;;7.38;;
21802;SDS011;18591;47.080;22.214;2022-09-30T07:10:04;10.77;;;6.85;;
21802;SDS011;18591;47.080;22.214;2022-09-30T07:12:06;8.70;;;6.05;;
21802;SDS011;18591;47.080;22.214;2022-09-30T07:14:08;10.18;;;5.95;;
21802;SDS011;18591;47.080;22.214;2022-09-30T07:16:14;8.65;;;5.95;;
21802;SDS011;18591;47.080;22.214;2022-09-30T07:18:19;12.90;;;6.70;;
21802;SDS011;18591;47.080;22.214;2022-09-30T07:20:22;9.63;;;6.40;;
21802;SDS011;18591;47.080;22.214;2022-09-30T07:22:24;7.32;;;5.53;;
21802;SDS011;18591;47.080;22.214;2022-09-30T07:24:30;7.88;;;5.50;;
21802;SDS011;18591;47.080;22.214;2022-09-30T07:26:33;9.15;;;5.80;;
21802;SDS011;18591;47.080;22.214;2022-09-30T07:28:35;8.43;;;6.93;;
21802;SDS011;18591;47.080;22.214;2022-09-30T07:30:40;9.90;;;8.10;;
21802;SDS011;18591;47.080;22.214;2022-09-30T07:32:46;8.25;;;6.15;;
21802;SDS011;18591;47.080;22.214;2022-09-30T07:34:51;9.52;;;5.57;;
21802;SDS011;18591;47.080;22.214;2022-09-30T07:36:53;10.00;;;3.30;;
21802;SDS011;18591;47.080;22.214;2022-09-30T07:38:55;4.80;;;3.25;;
21802;SDS011;18591;47.080;22.214;2022-09-30T07:41:06;5.40;;;3.13;;
21802;SDS011;18591;47.080;22.214;2022-09-30T07:43:13;6.55;;;2.92;;
21802;SDS011;18591;47.080;22.214;2022-09-30T07:45:19;6.05;;;3.05;;
21802;SDS011;18591;47.080;22.214;2022-09-30T07:47:21;13.63;;;6.32;;
21802;SDS011;18591;47.080;22.214;2022-09-30T07:49:24;11.73;;;8.75;;
21802;SDS011;18591;47.080;22.214;2022-09-30T07:51:28;12.85;;;7.50;;
21802;SDS011;18591;47.080;22.214;2022-09-30T07:53:39;16.05;;;10.93;;
21802;SDS011;18591;47.080;22.214;2022-09-30T07:55:42;18.02;;;11.10;;
21802;SDS011;18591;47.080;22.214;2022-09-30T07:57:44;21.73;;;14.68;;
21802;SDS011;18591;47.080;22.214;2022-09-30T07:59:46;24.00;;;14.50;;
21802;SDS011;18591;47.080;22.214;2022-09-30T08:01:47;22.20;;;10.23;;
21802;SDS011;18591;47.080;22.214;2022-09-30T08:04:19;9.35;;;6.30;;
21802;SDS011;18591;47.080;22.214;2022-09-30T08:06:22;9.95;;;5.82;;
21802;SDS011;18591;47.080;22.214;2022-09-30T08:08:29;7.22;;;5.63;;
21802;SDS011;18591;47.080;22.214;2022-09-30T08:10:43;12.95;;;7.80;;
21802;SDS011;18591;47.080;22.214;2022-09-30T08:12:45;11.25;;;6.20;;
21802;SDS011;18591;47.080;22.214;2022-09-30T08:14:47;8.93;;;5.88;;
21802;SDS011;18591;47.080;22.214;2022-09-30T08:16:49;9.38;;;6.07;;
21802;SDS011;18591;47.080;22.214;2022-09-30T08:18:55;6.50;;;4.03;;
21802;SDS011;18591;47.080;22.214;2022-09-30T08:21:05;8.50;;;4.50;;
21802;SDS011;18591;47.080;22.214;2022-09-30T08:23:08;7.47;;;3.95;;
21802;SDS011;18591;47.080;22.214;2022-09-30T08:25:10;6.47;;;4.63;;
21802;SDS011;18591;47.080;22.214;2022-09-30T08:27:16;5.35;;;2.95;;
21802;SDS011;18591;47.080;22.214;2022-09-30T08:31:57;3.20;;;2.90;;
21802;SDS011;18591;47.080;22.214;2022-09-30T08:33:59;4.57;;;2.78;;
21802;SDS011;18591;47.080;22.214;2022-09-30T08:36:07;5.20;;;2.03;;
21802;SDS011;18591;47.080;22.214;2022-09-30T08:38:11;4.43;;;2.15;;
21802;SDS011;18591;47.080;22.214;2022-09-30T08:40:16;4.13;;;2.50;;
21802;SDS011;18591;47.080;22.214;2022-09-30T08:44:45;4.72;;;2.03;;
21802;SDS011;18591;47.080;22.214;2022-09-30T08:51:48;2.72;;;2.00;;
21802;SDS011;18591;47.080;22.214;2022-09-30T08:53:52;3.67;;;2.10;;
21802;SDS011;18591;47.080;22.214;2022-09-30T08:55:56;3.10;;;1.80;;
21802;SDS011;18591;47.080;22.214;2022-09-30T08:58:03;2.10;;;1.90;;
21802;SDS011;18591;47.080;22.214;2022-09-30T09:00:07;2.17;;;1.83;;
21802;SDS011;18591;47.080;22.214;2022-09-30T09:04:18;4.65;;;2.25;;
21802;SDS011;18591;47.080;22.214;2022-09-30T09:06:25;2.75;;;1.77;;
21802;SDS011;18591;47.080;22.214;2022-09-30T09:11:07;3.25;;;1.88;;
21802;SDS011;18591;47.080;22.214;2022-09-30T09:17:58;4.85;;;1.63;;
21802;SDS011;18591;47.080;22.214;2022-09-30T09:20:24;3.20;;;1.85;;
21802;SDS011;18591;47.080;22.214;2022-09-30T09:22:35;1.70;;;1.42;;
21802;SDS011;18591;47.080;22.214;2022-09-30T09:24:39;2.95;;;1.80;;
21802;SDS011;18591;47.080;22.214;2022-09-30T09:26:46;1.88;;;1.67;;
21802;SDS011;18591;47.080;22.214;2022-09-30T09:31:17;2.70;;;1.60;;
21802;SDS011;18591;47.080;22.214;2022-09-30T09:33:21;2.85;;;1.67;;
21802;SDS011;18591;47.080;22.214;2022-09-30T09:40:55;2.88;;;1.52;;
21802;SDS011;18591;47.080;22.214;2022-09-30T09:43:11;3.08;;;1.40;;
21802;SDS011;18591;47.080;22.214;2022-09-30T09:45:22;2.53;;;1.27;;
21802;SDS011;18591;47.080;22.214;2022-09-30T09:47:31;1.70;;;1.20;;
21802;SDS011;18591;47.080;22.214;2022-09-30T09:49:34;2.35;;;1.50;;
21802;SDS011;18591;47.080;22.214;2022-09-30T09:51:42;1.80;;;1.35;;
21802;SDS011;18591;47.080;22.214;2022-09-30T09:53:49;2.10;;;1.15;;
21802;SDS011;18591;47.080;22.214;2022-09-30T09:55:54;4.15;;;1.42;;
21802;SDS011;18591;47.080;22.214;2022-09-30T09:58:04;1.77;;;1.00;;
21802;SDS011;18591;47.080;22.214;2022-09-30T10:00:24;1.73;;;1.48;;
21802;SDS011;18591;47.080;22.214;2022-09-30T10:02:50;1.25;;;1.15;;
21802;SDS011;18591;47.080;22.214;2022-09-30T10:04:59;3.67;;;1.60;;
21802;SDS011;18591;47.080;22.214;2022-09-30T10:07:13;2.67;;;1.42;;
21802;SDS011;18591;47.080;22.214;2022-09-30T10:09:26;2.03;;;1.55;;
21802;SDS011;18591;47.080;22.214;2022-09-30T10:11:36;2.70;;;1.65;;
21802;SDS011;18591;47.080;22.214;2022-09-30T10:15:40;1.60;;;1.50;;
21802;SDS011;18591;47.080;22.214;2022-09-30T10:17:44;3.60;;;1.40;;
21802;SDS011;18591;47.080;22.214;2022-09-30T10:19:54;2.30;;;1.60;;
21802;SDS011;18591;47.080;22.214;2022-09-30T10:24:27;1.98;;;1.83;;
21802;SDS011;18591;47.080;22.214;2022-09-30T10:26:35;2.13;;;2.00;;
21802;SDS011;18591;47.080;22.214;2022-09-30T10:28:50;2.97;;;2.63;;
21802;SDS011;18591;47.080;22.214;2022-09-30T10:31:01;3.58;;;2.42;;
21802;SDS011;18591;47.080;22.214;2022-09-30T10:33:40;3.53;;;2.33;;
21802;SDS011;18591;47.080;22.214;2022-09-30T10:35:46;2.15;;;2.05;;
21802;SDS011;18591;47.080;22.214;2022-09-30T10:37:53;3.42;;;2.08;;
21802;SDS011;18591;47.080;22.214;2022-09-30T10:40:02;2.88;;;2.67;;
21802;SDS011;18591;47.080;22.214;2022-09-30T10:42:17;2.80;;;2.60;;
21802;SDS011;18591;47.080;22.214;2022-09-30T10:44:27;3.70;;;2.63;;
21802;SDS011;18591;47.080;22.214;2022-09-30T10:46:32;4.05;;;2.60;;
21802;SDS011;18591;47.080;22.214;2022-09-30T10:48:39;8.75;;;4.22;;
21802;SDS011;18591;47.080;22.214;2022-09-30T10:50:41;8.13;;;5.13;;
21802;SDS011;18591;47.080;22.214;2022-09-30T10:52:54;5.60;;;2.95;;
21802;SDS011;18591;47.080;22.214;2022-09-30T10:55:04;3.03;;;2.55;;
21802;SDS011;18591;47.080;22.214;2022-09-30T10:59:24;3.47;;;1.75;;
21802;SDS011;18591;47.080;22.214;2022-09-30T11:02:18;3.67;;;1.67;;
21802;SDS011;18591;47.080;22.214;2022-09-30T11:04:40;4.10;;;1.80;;
21802;SDS011;18591;47.080;22.214;2022-09-30T11:06:48;2.55;;;1.88;;
21802;SDS011;18591;47.080;22.214;2022-09-30T11:09:05;2.17;;;1.52;;
21802;SDS011;18591;47.080;22.214;2022-09-30T11:11:15;1.67;;;1.42;;
21802;SDS011;18591;47.080;22.214;2022-09-30T11:13:59;3.78;;;2.15;;
21802;SDS011;18591;47.080;22.214;2022-09-30T11:18:46;3.28;;;1.80;;
21802;SDS011;18591;47.080;22.214;2022-09-30T11:20:51;1.63;;;1.25;;
21802;SDS011;18591;47.080;22.214;2022-09-30T11:25:24;4.10;;;2.05;;
21802;SDS011;18591;47.080;22.214;2022-09-30T11:27:52;3.25;;;1.70;;
21802;SDS011;18591;47.080;22.214;2022-09-30T11:30:22;2.95;;;1.50;;
21802;SDS011;18591;47.080;22.214;2022-09-30T11:33:01;4.82;;;1.33;;
21802;SDS011;18591;47.080;22.214;2022-09-30T11:39:59;7.03;;;4.07;;
21802;SDS011;18591;47.080;22.214;2022-09-30T11:52:03;19.85;;;9.45;;
21802;SDS011;18591;47.080;22.214;2022-09-30T11:56:37;12.77;;;6.47;;
21802;SDS011;18591;47.080;22.214;2022-09-30T11:58:44;13.05;;;7.38;;
21802;SDS011;18591;47.080;22.214;2022-09-30T12:00:53;18.30;;;9.50;;
21802;SDS011;18591;47.080;22.214;2022-09-30T12:03:05;22.77;;;12.32;;
21802;SDS011;18591;47.080;22.214;2022-09-30T12:05:17;31.60;;;15.73;;
21802;SDS011;18591;47.080;22.214;2022-09-30T12:07:21;41.75;;;18.77;;
21802;SDS011;18591;47.080;22.214;2022-09-30T12:09:47;35.80;;;16.10;;
21802;SDS011;18591;47.080;22.214;2022-09-30T12:15:03;35.78;;;16.92;;
21802;SDS011;18591;47.080;22.214;2022-09-30T12:16:47;36.28;;;15.80;;
21802;SDS011;18591;47.080;22.214;2022-09-30T12:19:10;31.08;;;13.90;;
21802;SDS011;18591;47.080;22.214;2022-09-30T12:23:42;15.48;;;8.52;;
21802;SDS011;18591;47.080;22.214;2022-09-30T12:25:50;15.55;;;8.85;;
21802;SDS011;18591;47.080;22.214;2022-09-30T12:30:29;11.93;;;6.35;;
21802;SDS011;18591;47.080;22.214;2022-09-30T12:39:33;34.72;;;15.23;;
21802;SDS011;18591;47.080;22.214;2022-09-30T12:44:42;36.25;;;19.30;;
21802;SDS011;18591;47.080;22.214;2022-09-30T12:49:12;27.85;;;14.40;;
21802;SDS011;18591;47.080;22.214;2022-09-30T12:51:29;34.15;;;18.02;;
21802;SDS011;18591;47.080;22.214;2022-09-30T12:53:34;37.53;;;18.60;;
21802;SDS011;18591;47.080;22.214;2022-09-30T12:55:40;20.98;;;11.63;;
21802;SDS011;18591;47.080;22.214;2022-09-30T12:57:43;17.88;;;9.38;;
21802;SDS011;18591;47.080;22.214;2022-09-30T12:59:49;16.15;;;9.23;;
21802;SDS011;18591;47.080;22.214;2022-09-30T13:01:55;10.23;;;5.82;;
21802;SDS011;18591;47.080;22.214;2022-09-30T13:06:01;5.55;;;3.92;;
21802;SDS011;18591;47.080;22.214;2022-09-30T13:08:07;4.88;;;3.75;;
21802;SDS011;18591;47.080;22.214;2022-09-30T13:10:26;3.47;;;2.90;;
21802;SDS011;18591;47.080;22.214;2022-09-30T13:12:41;4.10;;;3.10;;
21802;SDS011;18591;47.080;22.214;2022-09-30T13:14:46;3.30;;;2.53;;
21802;SDS011;18591;47.080;22.214;2022-09-30T13:19:00;3.38;;;2.80;;
21802;SDS011;18591;47.080;22.214;2022-09-30T13:23:11;6.63;;;5.13;;
21802;SDS011;18591;47.080;22.214;2022-09-30T13:25:54;6.25;;;4.43;;
21802;SDS011;18591;47.080;22.214;2022-09-30T13:32:30;8.38;;;4.13;;
21802;SDS011;18591;47.080;22.214;2022-09-30T13:41:35;6.32;;;4.90;;
21802;SDS011;18591;47.080;22.214;2022-09-30T13:46:21;4.28;;;3.17;;
21802;SDS011;18591;47.080;22.214;2022-09-30T13:48:31;5.30;;;3.53;;
21802;SDS011;18591;47.080;22.214;2022-09-30T13:50:37;5.57;;;3.95;;
21802;SDS011;18591;47.080;22.214;2022-09-30T13:52:51;6.50;;;4.72;;
21802;SDS011;18591;47.080;22.214;2022-09-30T13:55:10;9.65;;;6.32;;
21802;SDS011;18591;47.080;22.214;2022-09-30T14:00:13;16.50;;;9.70;;
21802;SDS011;18591;47.080;22.214;2022-09-30T14:02:31;21.85;;;11.70;;
21802;SDS011;18591;47.080;22.214;2022-09-30T14:04:48;24.70;;;13.32;;
21802;SDS011;18591;47.080;22.214;2022-09-30T14:07:14;32.42;;;17.73;;
21802;SDS011;18591;47.080;22.214;2022-09-30T14:09:41;27.52;;;15.35;;
21802;SDS011;18591;47.080;22.214;2022-09-30T14:12:01;25.75;;;14.40;;
21802;SDS011;18591;47.080;22.214;2022-09-30T14:17:20;33.20;;;18.88;;
21802;SDS011;18591;47.080;22.214;2022-09-30T14:19:33;32.05;;;17.25;;
21802;SDS011;18591;47.080;22.214;2022-09-30T14:21:55;33.22;;;17.45;;
21802;SDS011;18591;47.080;22.214;2022-09-30T14:24:10;20.50;;;11.05;;
21802;SDS011;18591;47.080;22.214;2022-09-30T14:28:40;14.55;;;9.80;;
21802;SDS011;18591;47.080;22.214;2022-09-30T14:30:47;16.77;;;11.15;;
21802;SDS011;18591;47.080;22.214;2022-09-30T14:33:15;26.50;;;14.43;;
21802;SDS011;18591;47.080;22.214;2022-09-30T14:35:25;33.40;;;19.05;;
21802;SDS011;18591;47.080;22.214;2022-09-30T14:37:31;36.92;;;19.08;;
21802;SDS011;18591;47.080;22.214;2022-09-30T14:39:37;35.17;;;18.77;;
21802;SDS011;18591;47.080;22.214;2022-09-30T14:41:39;48.67;;;24.58;;
21802;SDS011;18591;47.080;22.214;2022-09-30T14:43:56;36.78;;;18.83;;
21802;SDS011;18591;47.080;22.214;2022-09-30T14:48:24;53.25;;;27.02;;
21802;SDS011;18591;47.080;22.214;2022-09-30T14:50:33;63.92;;;29.50;;
21802;SDS011;18591;47.080;22.214;2022-09-30T14:52:42;51.85;;;25.45;;
21802;SDS011;18591;47.080;22.214;2022-09-30T14:54:46;40.08;;;21.02;;
21802;SDS011;18591;47.080;22.214;2022-09-30T14:56:49;34.70;;;19.00;;
21802;SDS011;18591;47.080;22.214;2022-09-30T14:58:55;33.40;;;17.10;;
21802;SDS011;18591;47.080;22.214;2022-09-30T15:03:09;26.63;;;13.85;;
21802;SDS011;18591;47.080;22.214;2022-09-30T15:05:15;19.20;;;11.00;;
21802;SDS011;18591;47.080;22.214;2022-09-30T15:07:18;16.42;;;9.85;;
21802;SDS011;18591;47.080;22.214;2022-09-30T15:11:33;13.07;;;7.40;;
21802;SDS011;18591;47.080;22.214;2022-09-30T15:13:40;10.65;;;7.25;;
21802;SDS011;18591;47.080;22.214;2022-09-30T15:15:42;11.95;;;8.45;;
21802;SDS011;18591;47.080;22.214;2022-09-30T15:17:44;15.55;;;9.88;;
21802;SDS011;18591;47.080;22.214;2022-09-30T15:19:47;14.50;;;9.63;;
21802;SDS011;18591;47.080;22.214;2022-09-30T15:21:51;13.90;;;9.20;;
21802;SDS011;18591;47.080;22.214;2022-09-30T15:23:56;14.60;;;8.90;;
21802;SDS011;18591;47.080;22.214;2022-09-30T15:26:01;27.92;;;12.55;;
21802;SDS011;18591;47.080;22.214;2022-09-30T15:28:04;22.02;;;10.50;;
21802;SDS011;18591;47.080;22.214;2022-09-30T15:32:20;30.95;;;17.70;;
21802;SDS011;18591;47.080;22.214;2022-09-30T15:34:25;21.40;;;12.35;;
21802;SDS011;18591;47.080;22.214;2022-09-30T15:36:29;31.65;;;15.63;;
21802;SDS011;18591;47.080;22.214;2022-09-30T15:38:32;28.20;;;15.27;;
21802;SDS011;18591;47.080;22.214;2022-09-30T15:40:36;21.02;;;10.98;;
21802;SDS011;18591;47.080;22.214;2022-09-30T15:47:19;13.20;;;7.40;;
21802;SDS011;18591;47.080;22.214;2022-09-30T15:51:39;8.45;;;5.97;;